createdAt,value
2023-03-19T00:00:35.250Z,-0.61
2023-03-19T00:01:31.921Z,-0.62
2023-03-19T00:02:28.593Z,-0.57
2023-03-19T00:03:27.259Z,-0.78
2023-03-19T00:04:25.216Z,-0.63
2023-03-19T00:05:21.809Z,-0.39
2023-03-19T00:06:18.763Z,-0.19
2023-03-19T00:07:16.504Z,-0.22
2023-03-19T00:08:13.149Z,-0.34
2023-03-19T00:09:10.012Z,-0.39
2023-03-19T00:10:06.953Z,-0.28
2023-03-19T00:11:12.507Z,-0.10
2023-03-19T00:12:09.786Z,0.04
2023-03-19T00:13:07.141Z,-0.14
2023-03-19T00:14:04.276Z,-0.52
2023-03-19T00:15:01.315Z,-0.55
2023-03-19T00:15:57.963Z,-0.63
2023-03-19T00:16:54.788Z,-0.80
2023-03-19T00:17:51.701Z,-0.91
2023-03-19T00:18:48.285Z,-1.02
2023-03-19T00:19:44.857Z,-1.04
2023-03-19T00:20:41.638Z,-0.99
2023-03-19T00:21:38.234Z,-1.26
2023-03-19T00:22:34.856Z,-1.23
2023-03-19T00:23:31.896Z,-1.32
2023-03-19T00:24:29.049Z,-1.28
2023-03-19T00:25:25.889Z,-1.31
2023-03-19T00:26:22.486Z,-1.27
2023-03-19T00:27:19.097Z,-1.20
2023-03-19T00:28:15.719Z,-1.19
2023-03-19T00:29:12.984Z,-1.27
2023-03-19T00:30:10.252Z,-1.27
2023-03-19T00:31:15.518Z,-1.34
2023-03-19T00:32:12.282Z,-1.45
2023-03-19T00:33:09.178Z,-1.50
2023-03-19T00:34:05.858Z,-1.49
2023-03-19T00:35:03.771Z,-2.04
2023-03-19T00:36:00.750Z,-1.34
2023-03-19T00:36:57.477Z,-1.25
2023-03-19T00:37:55.389Z,-0.67
2023-03-19T00:38:52.239Z,-0.43
2023-03-19T00:39:49.199Z,-0.20
2023-03-19T00:40:45.793Z,-0.25
2023-03-19T00:41:50.425Z,-0.50
2023-03-19T00:42:47.143Z,-0.84
2023-03-19T00:43:43.877Z,-1.01
2023-03-19T00:44:40.573Z,-1.10
2023-03-19T00:45:37.164Z,-1.28
2023-03-19T00:46:34.135Z,-1.37
2023-03-19T00:47:30.722Z,-1.49
2023-03-19T00:48:27.310Z,-1.52
2023-03-19T00:49:23.960Z,-1.44
2023-03-19T00:50:20.601Z,-1.41
2023-03-19T00:51:17.194Z,-1.42
2023-03-19T00:52:13.840Z,-1.43
2023-03-19T00:53:10.504Z,-1.57
2023-03-19T00:54:07.119Z,-1.63
2023-03-19T00:55:04.412Z,-1.60
2023-03-19T00:56:01.332Z,-1.57
2023-03-19T00:56:58.081Z,-1.63
2023-03-19T00:57:54.678Z,-1.47
2023-03-19T00:58:51.890Z,-1.47
2023-03-19T00:59:48.505Z,-1.48
2023-03-19T01:00:45.379Z,-1.49
2023-03-19T01:01:42.200Z,-1.50
2023-03-19T01:02:38.889Z,-1.60
2023-03-19T01:03:36.694Z,-1.54
2023-03-19T01:04:33.383Z,-1.45
2023-03-19T01:05:30.532Z,-1.80
2023-03-19T01:06:27.282Z,-1.36
2023-03-19T01:07:24.064Z,-1.48
2023-03-19T01:08:20.966Z,-1.40
2023-03-19T01:09:17.864Z,-1.39
2023-03-19T01:10:14.518Z,-1.30
2023-03-19T01:11:15.309Z,-1.05
2023-03-19T01:12:11.995Z,-0.75
2023-03-19T01:13:08.705Z,-1.19
2023-03-19T01:14:05.420Z,-1.12
2023-03-19T01:15:02.989Z,-1.69
2023-03-19T01:15:59.678Z,-1.87
2023-03-19T01:16:56.915Z,-1.64
2023-03-19T01:17:53.645Z,-1.61
2023-03-19T01:18:50.260Z,-1.60
2023-03-19T01:19:47.483Z,-1.84
2023-03-19T01:20:44.203Z,-1.54
2023-03-19T01:21:41.275Z,-1.40
2023-03-19T01:22:37.960Z,-1.44
2023-03-19T01:23:34.604Z,-1.39
2023-03-19T01:24:32.130Z,-1.37
2023-03-19T01:25:28.828Z,-1.49
2023-03-19T01:26:26.166Z,-1.55
2023-03-19T01:27:22.964Z,-1.34
2023-03-19T01:28:20.001Z,-1.36
2023-03-19T01:29:16.614Z,-1.54
2023-03-19T01:30:13.559Z,-1.50
2023-03-19T01:31:10.282Z,-1.53
2023-03-19T01:32:07.588Z,-1.30
2023-03-19T01:33:04.276Z,-1.16
2023-03-19T01:34:01.886Z,-1.11
2023-03-19T01:34:58.472Z,-1.18
2023-03-19T01:35:55.668Z,-1.14
2023-03-19T01:36:52.642Z,-1.06
2023-03-19T01:37:49.220Z,-1.03
2023-03-19T01:38:45.886Z,-0.98
2023-03-19T01:39:42.641Z,-0.97
2023-03-19T01:40:45.024Z,-1.00
2023-03-19T01:41:41.852Z,-1.13
2023-03-19T01:43:12.673Z,-1.22
2023-03-19T01:44:30.703Z,-1.26
2023-03-19T01:45:32.151Z,-1.06
2023-03-19T01:46:36.462Z,-0.95
2023-03-19T01:47:36.066Z,-0.86
2023-03-19T01:48:39.686Z,-0.71
2023-03-19T01:49:37.805Z,-0.77
2023-03-19T01:50:42.073Z,-0.90
2023-03-19T01:51:43.190Z,-1.05
2023-03-19T01:52:39.753Z,-0.91
2023-03-19T01:53:40.137Z,-0.80
2023-03-19T01:54:36.819Z,-0.91
2023-03-19T01:55:33.564Z,-1.14
2023-03-19T01:56:33.383Z,-1.35
2023-03-19T01:57:31.553Z,-1.41
2023-03-19T01:58:28.762Z,-1.17
2023-03-19T01:59:27.319Z,-0.89
2023-03-19T02:00:24.050Z,-1.08
2023-03-19T02:01:20.912Z,-0.90
2023-03-19T02:02:30.564Z,-0.90
2023-03-19T02:03:27.585Z,-0.86
2023-03-19T02:04:27.357Z,-0.70
2023-03-19T02:05:26.801Z,-0.87
2023-03-19T02:06:24.637Z,-1.50
2023-03-19T02:07:21.946Z,-1.47
2023-03-19T02:08:22.919Z,-1.43
2023-03-19T02:09:20.078Z,-1.63
2023-03-19T02:10:17.675Z,-1.18
2023-03-19T02:11:14.702Z,-1.12
2023-03-19T02:12:12.733Z,-1.06
2023-03-19T02:13:09.391Z,-1.00
2023-03-19T02:14:06.223Z,-1.01
2023-03-19T02:15:03.133Z,-1.35
2023-03-19T02:15:59.797Z,-1.34
2023-03-19T02:16:57.028Z,-1.73
2023-03-19T02:17:54.591Z,-1.72
2023-03-19T02:18:51.480Z,-1.93
2023-03-19T02:19:57.913Z,-1.76
2023-03-19T02:21:06.853Z,-1.74
2023-03-19T02:22:05.167Z,-1.82
2023-03-19T02:23:14.230Z,-1.91
2023-03-19T02:24:25.275Z,-1.92
2023-03-19T02:25:28.737Z,-1.94
2023-03-19T02:26:28.779Z,-2.00
2023-03-19T02:27:28.396Z,-2.28
2023-03-19T02:28:25.526Z,-2.54
2023-03-19T02:29:22.194Z,-2.46
2023-03-19T02:30:31.167Z,-2.82
2023-03-19T02:31:28.135Z,-2.66
2023-03-19T02:32:25.034Z,-2.68
2023-03-19T02:33:21.780Z,-2.66
2023-03-19T02:34:24.001Z,-2.59
2023-03-19T02:35:20.964Z,-2.45
2023-03-19T02:36:20.301Z,-2.79
2023-03-19T02:37:22.579Z,-2.19
2023-03-19T02:38:22.913Z,-2.02
2023-03-19T02:39:28.315Z,-2.09
2023-03-19T02:40:29.478Z,-2.17
2023-03-19T02:41:26.710Z,-2.22
2023-03-19T02:42:26.048Z,-2.28
2023-03-19T02:43:23.415Z,-2.25
2023-03-19T02:44:20.797Z,-2.27
2023-03-19T02:45:18.286Z,-2.58
2023-03-19T02:46:14.923Z,-2.20
2023-03-19T02:47:12.103Z,-2.12
2023-03-19T02:48:08.806Z,-2.15
2023-03-19T02:49:05.514Z,-2.21
2023-03-19T02:50:02.158Z,-2.28
2023-03-19T02:50:59.230Z,-2.20
2023-03-19T02:51:55.992Z,-2.28
2023-03-19T02:52:52.588Z,-2.49
2023-03-19T02:53:49.155Z,-2.40
2023-03-19T02:54:46.719Z,-2.37
2023-03-19T02:55:43.428Z,-2.41
2023-03-19T02:56:40.527Z,-2.53
2023-03-19T02:57:37.126Z,-2.42
2023-03-19T02:58:33.774Z,-2.45
2023-03-19T02:59:31.143Z,-2.16
2023-03-19T03:00:28.290Z,-2.38
2023-03-19T03:01:25.017Z,-2.17
2023-03-19T03:02:21.741Z,-2.26
2023-03-19T03:03:18.709Z,-2.32
2023-03-19T03:04:16.609Z,-2.30
2023-03-19T03:05:14.386Z,-2.36
2023-03-19T03:06:11.119Z,-2.29
2023-03-19T03:07:08.675Z,-2.26
2023-03-19T03:08:05.585Z,-2.27
2023-03-19T03:09:02.241Z,-2.45
2023-03-19T03:09:59.486Z,-2.38
2023-03-19T03:10:56.094Z,-2.52
2023-03-19T03:11:53.296Z,-2.73
2023-03-19T03:12:49.878Z,-2.58
2023-03-19T03:13:46.496Z,-2.46
2023-03-19T03:14:43.392Z,-2.16
2023-03-19T03:15:40.107Z,-1.81
2023-03-19T03:16:38.008Z,-1.63
2023-03-19T03:17:38.859Z,-1.73
2023-03-19T03:18:36.198Z,-1.44
2023-03-19T03:19:32.822Z,-1.27
2023-03-19T03:20:30.044Z,-1.23
2023-03-19T03:21:26.790Z,-1.11
2023-03-19T03:22:23.461Z,-1.33
2023-03-19T03:23:20.807Z,-1.67
2023-03-19T03:24:17.512Z,-1.96
2023-03-19T03:25:14.959Z,-2.18
2023-03-19T03:26:12.269Z,-2.34
2023-03-19T03:27:09.510Z,-2.44
2023-03-19T03:28:06.195Z,-2.65
2023-03-19T03:29:02.814Z,-2.40
2023-03-19T03:30:00.462Z,-2.39
2023-03-19T03:31:00.270Z,-2.41
2023-03-19T03:31:57.465Z,-2.56
2023-03-19T03:32:54.539Z,-2.58
2023-03-19T03:33:51.180Z,-2.62
2023-03-19T03:34:47.814Z,-2.84
2023-03-19T03:35:44.520Z,-2.47
2023-03-19T03:36:41.217Z,-2.36
2023-03-19T03:37:38.196Z,-2.42
2023-03-19T03:38:34.852Z,-2.45
2023-03-19T03:39:31.591Z,-2.31
2023-03-19T03:40:28.335Z,-2.13
2023-03-19T03:41:25.008Z,-2.08
2023-03-19T03:42:21.811Z,-2.36
2023-03-19T03:43:20.816Z,-2.52
2023-03-19T03:44:17.510Z,-2.48
2023-03-19T03:45:14.444Z,-2.55
2023-03-19T03:46:11.406Z,-2.39
2023-03-19T03:47:08.192Z,-2.46
2023-03-19T03:48:05.013Z,-2.59
2023-03-19T03:49:01.800Z,-2.81
2023-03-19T03:49:58.409Z,-2.61
2023-03-19T03:50:55.050Z,-2.65
2023-03-19T03:51:52.601Z,-2.65
2023-03-19T03:52:49.161Z,-2.66
2023-03-19T03:53:46.476Z,-2.63
2023-03-19T03:54:43.265Z,-2.65
2023-03-19T03:55:40.610Z,-2.71
2023-03-19T03:56:37.436Z,-2.54
2023-03-19T03:57:34.018Z,-2.83
2023-03-19T03:58:30.607Z,-2.39
2023-03-19T03:59:27.219Z,-2.27
2023-03-19T04:00:24.228Z,-2.72
2023-03-19T04:01:21.474Z,-2.42
2023-03-19T04:02:18.143Z,-2.37
2023-03-19T04:03:15.400Z,-2.38
2023-03-19T04:04:12.077Z,-2.34
2023-03-19T04:05:09.260Z,-2.32
2023-03-19T04:06:06.149Z,-2.36
2023-03-19T04:07:02.745Z,-2.21
2023-03-19T04:07:59.379Z,-2.25
2023-03-19T04:08:56.552Z,-2.29
2023-03-19T04:09:53.222Z,-2.31
2023-03-19T04:10:49.849Z,-2.36
2023-03-19T04:11:46.507Z,-2.74
2023-03-19T04:12:43.585Z,-2.40
2023-03-19T04:13:40.230Z,-2.28
2023-03-19T04:14:37.477Z,-1.95
2023-03-19T04:15:34.269Z,-1.84
2023-03-19T04:16:30.900Z,-1.81
2023-03-19T04:17:27.486Z,-1.82
2023-03-19T04:18:24.129Z,-1.91
2023-03-19T04:19:21.130Z,-2.02
2023-03-19T04:20:18.707Z,-2.42
2023-03-19T04:21:15.811Z,-2.62
2023-03-19T04:22:12.886Z,-2.14
2023-03-19T04:23:09.460Z,-2.11
2023-03-19T04:24:06.459Z,-2.08
2023-03-19T04:25:03.089Z,-2.09
2023-03-19T04:26:04.825Z,-2.03
2023-03-19T04:27:01.592Z,-1.82
2023-03-19T04:27:58.801Z,-1.89
2023-03-19T04:28:55.450Z,-2.23
2023-03-19T04:29:52.048Z,-2.04
2023-03-19T04:30:48.787Z,-2.01
2023-03-19T04:31:45.799Z,-1.84
2023-03-19T04:32:44.395Z,-1.96
2023-03-19T04:33:41.174Z,-2.09
2023-03-19T04:34:37.864Z,-2.21
2023-03-19T04:35:34.893Z,-2.18
2023-03-19T04:36:31.509Z,-2.31
2023-03-19T04:37:28.222Z,-2.27
2023-03-19T04:38:28.979Z,-2.47
2023-03-19T04:39:26.032Z,-2.08
2023-03-19T04:40:22.705Z,-1.96
2023-03-19T04:41:19.403Z,-2.09
2023-03-19T04:42:16.195Z,-2.32
2023-03-19T04:43:12.774Z,-2.33
2023-03-19T04:44:09.668Z,-2.44
2023-03-19T04:45:07.011Z,-2.44
2023-03-19T04:46:03.848Z,-2.40
2023-03-19T04:47:00.496Z,-2.37
2023-03-19T04:47:57.157Z,-2.38
2023-03-19T04:48:53.881Z,-2.37
2023-03-19T04:49:50.435Z,-2.44
2023-03-19T04:50:47.765Z,-2.51
2023-03-19T04:51:44.465Z,-2.54
2023-03-19T04:52:41.168Z,-2.59
2023-03-19T04:53:38.959Z,-2.65
2023-03-19T04:54:35.586Z,-2.68
2023-03-19T04:55:32.562Z,-2.88
2023-03-19T04:56:29.551Z,-2.90
2023-03-19T04:57:27.540Z,-2.67
2023-03-19T04:58:24.264Z,-2.59
2023-03-19T04:59:22.897Z,-2.59
2023-03-19T05:00:20.611Z,-2.60
2023-03-19T05:01:17.348Z,-2.59
2023-03-19T05:02:14.169Z,-2.59
2023-03-19T05:03:11.534Z,-2.56
2023-03-19T05:04:08.773Z,-2.53
2023-03-19T05:05:05.550Z,-2.53
2023-03-19T05:06:02.295Z,-2.52
2023-03-19T05:06:58.953Z,-2.61
2023-03-19T05:07:57.378Z,-2.42
2023-03-19T05:08:54.038Z,-2.39
2023-03-19T05:09:50.612Z,-2.42
2023-03-19T05:10:47.310Z,-2.36
2023-03-19T05:11:43.880Z,-2.37
2023-03-19T05:12:41.198Z,-2.22
2023-03-19T05:13:38.202Z,-2.19
2023-03-19T05:14:34.818Z,-2.29
2023-03-19T05:15:31.571Z,-2.19
2023-03-19T05:16:28.116Z,-1.95
2023-03-19T05:17:26.412Z,-2.30
2023-03-19T05:18:23.233Z,-1.90
2023-03-19T05:19:19.943Z,-1.91
2023-03-19T05:20:16.823Z,-1.78
2023-03-19T05:21:13.798Z,-1.74
2023-03-19T05:22:10.557Z,-1.68
2023-03-19T05:23:07.341Z,-1.57
2023-03-19T05:24:04.687Z,-1.50
2023-03-19T05:25:01.350Z,-1.49
2023-03-19T05:26:00.927Z,-1.45
2023-03-19T05:26:58.124Z,-1.45
2023-03-19T05:27:54.761Z,-1.55
2023-03-19T05:28:51.303Z,-1.60
2023-03-19T05:29:48.236Z,-1.56
2023-03-19T05:30:45.004Z,-1.45
2023-03-19T05:31:41.967Z,-1.38
2023-03-19T05:32:40.595Z,-1.21
2023-03-19T05:33:37.458Z,-1.10
2023-03-19T05:34:34.321Z,-0.95
2023-03-19T05:35:31.113Z,-0.93
2023-03-19T05:36:28.295Z,-0.89
2023-03-19T05:37:25.237Z,-0.83
2023-03-19T05:38:22.280Z,-1.07
2023-03-19T05:39:19.649Z,-0.73
2023-03-19T05:40:16.706Z,-0.98
2023-03-19T05:41:13.530Z,-0.66
2023-03-19T05:42:10.200Z,-0.59
2023-03-19T05:43:06.864Z,-0.68
2023-03-19T05:44:04.386Z,-0.51
2023-03-19T05:45:00.935Z,-0.55
2023-03-19T05:45:58.042Z,-0.37
2023-03-19T05:46:54.753Z,-0.51
2023-03-19T05:47:51.351Z,-0.57
2023-03-19T05:48:47.972Z,-0.30
2023-03-19T05:49:44.702Z,-0.51
2023-03-19T05:50:42.582Z,-0.62
2023-03-19T05:51:39.193Z,-0.47
2023-03-19T05:52:36.572Z,-0.43
2023-03-19T05:53:33.980Z,-0.45
2023-03-19T05:54:30.820Z,-0.58
2023-03-19T05:55:27.447Z,-0.15
2023-03-19T05:56:24.157Z,-0.01
2023-03-19T05:57:21.285Z,0.07
2023-03-19T05:58:17.909Z,0.32
2023-03-19T05:59:14.813Z,0.52
2023-03-19T06:00:13.268Z,0.41
2023-03-19T06:01:09.969Z,0.28
2023-03-19T06:02:06.748Z,0.11
2023-03-19T06:03:03.731Z,-0.04
2023-03-19T06:04:00.354Z,-0.42
2023-03-19T06:04:56.950Z,-0.17
2023-03-19T06:05:53.983Z,0.02
2023-03-19T06:06:50.778Z,0.10
2023-03-19T06:07:47.424Z,0.29
2023-03-19T06:08:44.287Z,0.34
2023-03-19T06:09:41.253Z,0.90
2023-03-19T06:10:37.948Z,0.65
2023-03-19T06:11:34.544Z,0.51
2023-03-19T06:12:31.214Z,0.38
2023-03-19T06:13:27.766Z,0.50
2023-03-19T06:14:25.616Z,0.58
2023-03-19T06:15:22.336Z,0.82
2023-03-19T06:16:19.130Z,0.81
2023-03-19T06:17:15.931Z,0.78
2023-03-19T06:18:12.499Z,1.16
2023-03-19T06:19:09.102Z,1.50
2023-03-19T06:20:06.073Z,1.45
2023-03-19T06:21:02.696Z,1.37
2023-03-19T06:21:59.310Z,1.39
2023-03-19T06:22:56.066Z,1.49
2023-03-19T06:23:52.772Z,1.09
2023-03-19T06:24:49.781Z,1.51
2023-03-19T06:25:47.088Z,1.83
2023-03-19T06:26:43.734Z,1.92
2023-03-19T06:27:40.361Z,2.17
2023-03-19T06:28:36.918Z,1.85
2023-03-19T06:29:33.469Z,1.98
2023-03-19T06:30:30.084Z,2.15
2023-03-19T06:31:27.685Z,2.07
2023-03-19T06:32:26.489Z,1.86
2023-03-19T06:33:25.893Z,2.05
2023-03-19T06:34:22.793Z,1.84
2023-03-19T06:35:19.421Z,2.17
2023-03-19T06:36:16.566Z,2.21
2023-03-19T06:37:13.145Z,1.61
2023-03-19T06:38:09.698Z,1.89
2023-03-19T06:39:06.355Z,1.96
2023-03-19T06:40:05.093Z,1.98
2023-03-19T06:41:02.602Z,1.82
2023-03-19T06:41:59.168Z,1.87
2023-03-19T06:42:56.488Z,1.82
2023-03-19T06:43:53.348Z,1.86
2023-03-19T06:44:53.008Z,1.51
2023-03-19T06:45:50.387Z,2.07
2023-03-19T06:46:47.053Z,1.92
2023-03-19T06:47:43.699Z,1.98
2023-03-19T06:48:40.340Z,1.69
2023-03-19T06:49:37.430Z,2.28
2023-03-19T06:50:34.314Z,2.26
2023-03-19T06:51:31.224Z,2.16
2023-03-19T06:52:27.769Z,2.54
2023-03-19T06:53:24.622Z,2.71
2023-03-19T06:54:21.499Z,2.53
2023-03-19T06:55:20.422Z,2.62
2023-03-19T06:56:17.043Z,2.73
2023-03-19T06:57:13.646Z,2.58
2023-03-19T06:58:10.829Z,2.54
2023-03-19T06:59:07.462Z,2.49
2023-03-19T07:00:06.275Z,2.44
2023-03-19T07:01:03.700Z,2.39
2023-03-19T07:02:00.355Z,2.28
2023-03-19T07:02:56.994Z,2.42
2023-03-19T07:03:53.768Z,2.15
2023-03-19T07:04:50.921Z,2.22
2023-03-19T07:05:51.706Z,2.08
2023-03-19T07:06:48.380Z,2.49
2023-03-19T07:07:45.009Z,2.58
2023-03-19T07:08:46.298Z,2.33
2023-03-19T07:09:42.976Z,2.20
2023-03-19T07:10:39.801Z,2.34
2023-03-19T07:11:36.832Z,2.48
2023-03-19T07:12:33.624Z,2.49
2023-03-19T07:13:30.711Z,2.74
2023-03-19T07:14:27.402Z,2.67
2023-03-19T07:15:24.098Z,2.76
2023-03-19T07:16:20.899Z,2.61
2023-03-19T07:17:17.502Z,2.87
2023-03-19T07:18:14.189Z,2.71
2023-03-19T07:19:11.620Z,2.77
2023-03-19T07:20:08.798Z,2.71
2023-03-19T07:21:05.830Z,3.03
2023-03-19T07:22:02.495Z,3.13
2023-03-19T07:22:59.329Z,3.28
2023-03-19T07:23:56.145Z,3.15
2023-03-19T07:24:52.797Z,3.22
2023-03-19T07:25:49.535Z,3.01
2023-03-19T07:26:48.948Z,3.10
2023-03-19T07:27:45.996Z,3.28
2023-03-19T07:28:42.768Z,3.54
2023-03-19T07:29:39.371Z,3.64
2023-03-19T07:30:36.311Z,3.94
2023-03-19T07:31:33.353Z,4.23
2023-03-19T07:32:30.077Z,4.33
2023-03-19T07:33:26.697Z,4.38
2023-03-19T07:34:23.515Z,4.26
2023-03-19T07:35:20.409Z,4.13
2023-03-19T07:36:17.235Z,3.82
2023-03-19T07:37:13.848Z,3.88
2023-03-19T07:38:10.560Z,3.95
2023-03-19T07:39:07.123Z,4.09
2023-03-19T07:40:05.202Z,3.94
2023-03-19T07:41:03.030Z,4.11
2023-03-19T07:41:59.961Z,4.50
2023-03-19T07:42:56.739Z,4.59
2023-03-19T07:43:53.580Z,4.73
2023-03-19T07:44:50.474Z,4.73
2023-03-19T07:45:47.198Z,5.04
2023-03-19T07:46:43.985Z,5.23
2023-03-19T07:47:40.844Z,4.24
2023-03-19T07:48:37.558Z,4.12
2023-03-19T07:49:34.335Z,4.57
2023-03-19T07:50:31.469Z,4.69
2023-03-19T07:51:28.273Z,4.56
2023-03-19T07:52:26.144Z,4.72
2023-03-19T07:53:22.989Z,5.01
2023-03-19T07:54:19.615Z,4.91
2023-03-19T07:55:16.240Z,5.34
2023-03-19T07:56:13.451Z,5.03
2023-03-19T07:57:10.058Z,4.84
2023-03-19T07:58:06.880Z,5.17
2023-03-19T07:59:03.495Z,5.69
2023-03-19T08:00:00.188Z,5.54
2023-03-19T08:00:56.920Z,5.61
2023-03-19T08:01:53.814Z,5.33
2023-03-19T08:02:50.614Z,5.29
2023-03-19T08:03:48.663Z,5.03
2023-03-19T08:04:45.636Z,5.13
2023-03-19T08:05:44.669Z,5.01
2023-03-19T08:06:41.413Z,5.53
2023-03-19T08:07:38.084Z,5.44
2023-03-19T08:08:35.117Z,5.37
2023-03-19T08:09:32.349Z,5.26
2023-03-19T08:10:29.184Z,5.71
2023-03-19T08:11:26.176Z,5.82
2023-03-19T08:12:22.814Z,5.80
2023-03-19T08:13:19.666Z,5.57
2023-03-19T08:14:19.348Z,5.50
2023-03-19T08:15:16.230Z,5.57
2023-03-19T08:16:13.645Z,5.86
2023-03-19T08:17:10.329Z,6.26
2023-03-19T08:18:07.721Z,6.64
2023-03-19T08:19:04.469Z,6.56
2023-03-19T08:20:01.220Z,6.25
2023-03-19T08:20:57.878Z,6.09
2023-03-19T08:21:54.636Z,6.03
2023-03-19T08:22:51.260Z,5.58
2023-03-19T08:23:47.828Z,5.74
2023-03-19T08:24:44.508Z,5.53
2023-03-19T08:25:41.495Z,6.00
2023-03-19T08:26:38.180Z,5.96
2023-03-19T08:27:38.173Z,6.17
2023-03-19T08:28:35.743Z,6.27
2023-03-19T08:29:32.412Z,6.25
2023-03-19T08:30:29.092Z,6.45
2023-03-19T08:31:25.808Z,6.56
2023-03-19T08:32:22.570Z,6.90
2023-03-19T08:33:19.204Z,6.43
2023-03-19T08:34:16.164Z,6.57
2023-03-19T08:35:13.271Z,6.75
2023-03-19T08:36:12.816Z,5.49
2023-03-19T08:37:09.591Z,6.47
2023-03-19T08:38:07.134Z,7.03
2023-03-19T08:39:04.315Z,6.75
2023-03-19T08:40:00.970Z,6.71
2023-03-19T08:41:02.206Z,6.49
2023-03-19T08:41:58.948Z,6.73
2023-03-19T08:42:56.520Z,6.63
2023-03-19T08:43:53.404Z,6.69
2023-03-19T08:44:50.570Z,6.59
2023-03-19T08:45:47.392Z,6.29
2023-03-19T08:46:44.254Z,6.72
2023-03-19T08:47:41.308Z,6.69
2023-03-19T08:48:40.341Z,6.70
2023-03-19T08:49:38.475Z,6.44
2023-03-19T08:50:36.000Z,7.07
2023-03-19T08:51:33.064Z,7.14
2023-03-19T08:52:29.785Z,7.09
2023-03-19T08:53:26.461Z,6.85
2023-03-19T08:54:23.268Z,7.11
2023-03-19T08:55:20.118Z,6.54
2023-03-19T08:56:16.953Z,6.74
2023-03-19T08:57:13.639Z,7.34
2023-03-19T08:58:10.341Z,7.69
2023-03-19T08:59:07.004Z,7.62
2023-03-19T09:00:05.805Z,7.65
2023-03-19T09:01:10.136Z,7.13
2023-03-19T09:02:07.521Z,6.87
2023-03-19T09:03:04.158Z,6.76
2023-03-19T09:04:01.105Z,6.87
2023-03-19T09:04:57.774Z,7.15
2023-03-19T09:05:58.808Z,7.55
2023-03-19T09:06:55.946Z,7.36
2023-03-19T09:07:53.848Z,7.22
2023-03-19T09:08:50.482Z,7.52
2023-03-19T09:09:47.148Z,7.69
2023-03-19T09:10:43.751Z,7.66
2023-03-19T09:11:40.416Z,8.18
2023-03-19T09:12:37.075Z,8.02
2023-03-19T09:13:34.464Z,7.62
2023-03-19T09:14:31.117Z,7.86
2023-03-19T09:15:27.865Z,7.99
2023-03-19T09:16:26.104Z,8.06
2023-03-19T09:17:22.961Z,8.11
2023-03-19T09:18:20.856Z,8.19
2023-03-19T09:19:17.529Z,8.30
2023-03-19T09:20:14.224Z,8.54
2023-03-19T09:21:11.299Z,8.36
2023-03-19T09:22:08.048Z,8.54
2023-03-19T09:23:04.717Z,7.98
2023-03-19T09:24:01.759Z,8.40
2023-03-19T09:24:58.437Z,8.84
2023-03-19T09:25:55.411Z,9.14
2023-03-19T09:26:52.785Z,9.14
2023-03-19T09:27:49.476Z,8.85
2023-03-19T09:28:46.573Z,8.96
2023-03-19T09:29:43.258Z,9.14
2023-03-19T09:30:39.950Z,8.66
2023-03-19T09:31:37.808Z,8.46
2023-03-19T09:32:34.426Z,8.19
2023-03-19T09:33:31.295Z,8.60
2023-03-19T09:34:28.276Z,8.63
2023-03-19T09:35:31.248Z,8.33
2023-03-19T09:36:27.912Z,8.17
2023-03-19T09:37:24.874Z,8.87
2023-03-19T09:38:22.422Z,9.27
2023-03-19T09:39:19.464Z,9.45
2023-03-19T09:40:30.299Z,9.62
2023-03-19T09:41:48.792Z,9.72
2023-03-19T09:43:04.230Z,9.96
2023-03-19T09:44:10.966Z,9.56
2023-03-19T09:45:19.401Z,8.48
2023-03-19T09:46:25.763Z,8.95
2023-03-19T09:47:37.670Z,8.96
2023-03-19T09:48:42.481Z,9.17
2023-03-19T09:49:43.307Z,8.99
2023-03-19T09:50:39.942Z,9.02
2023-03-19T09:51:46.987Z,9.14
2023-03-19T09:53:02.280Z,9.21
2023-03-19T09:54:05.022Z,9.07
2023-03-19T09:55:12.635Z,9.16
2023-03-19T09:56:14.880Z,9.43
2023-03-19T09:57:13.829Z,9.74
2023-03-19T09:58:33.201Z,9.89
2023-03-19T09:59:30.771Z,10.36
2023-03-19T10:00:36.839Z,10.51
2023-03-19T10:01:37.284Z,10.07
2023-03-19T10:02:41.961Z,9.70
2023-03-19T10:03:56.533Z,10.25
2023-03-19T10:05:05.495Z,9.92
2023-03-19T10:06:23.521Z,9.53
2023-03-19T10:07:38.233Z,9.58
2023-03-19T10:09:01.169Z,9.94
2023-03-19T10:10:16.342Z,9.28
2023-03-19T10:11:31.236Z,9.57
2023-03-19T10:13:06.412Z,10.34
2023-03-19T10:14:21.457Z,10.96
2023-03-19T10:15:29.893Z,10.06
2023-03-19T10:16:27.990Z,10.09
2023-03-19T10:17:58.411Z,10.86
2023-03-19T10:19:00.039Z,10.84
2023-03-19T10:20:06.470Z,11.01
2023-03-19T10:21:11.372Z,11.00
2023-03-19T10:22:15.899Z,10.53
2023-03-19T10:23:50.861Z,10.28
2023-03-19T10:24:50.515Z,10.77
2023-03-19T10:25:47.830Z,11.19
2023-03-19T10:26:46.054Z,10.88
2023-03-19T10:27:46.380Z,11.10
2023-03-19T10:28:46.002Z,10.80
2023-03-19T10:29:43.342Z,10.93
2023-03-19T10:30:41.359Z,11.40
2023-03-19T10:31:48.300Z,10.98
2023-03-19T10:32:53.513Z,11.36
2023-03-19T10:34:22.312Z,11.47
2023-03-19T10:35:25.004Z,11.68
2023-03-19T10:36:26.377Z,10.99
2023-03-19T10:37:26.649Z,10.73
2023-03-19T10:38:26.694Z,11.04
2023-03-19T10:39:23.763Z,11.24
2023-03-19T10:40:26.504Z,10.96
2023-03-19T10:41:57.716Z,11.06
2023-03-19T10:43:12.105Z,10.97
2023-03-19T10:44:29.582Z,11.29
2023-03-19T10:45:36.161Z,11.30
2023-03-19T10:46:40.539Z,10.80
2023-03-19T10:47:41.357Z,11.04
2023-03-19T10:48:44.378Z,11.45
2023-03-19T10:49:41.722Z,11.80
2023-03-19T10:50:43.458Z,11.81
2023-03-19T10:51:42.992Z,11.93
2023-03-19T10:52:39.742Z,11.39
2023-03-19T10:53:38.538Z,11.66
2023-03-19T10:54:40.312Z,11.60
2023-03-19T10:55:37.304Z,11.74
2023-03-19T10:56:34.473Z,11.97
2023-03-19T10:57:32.057Z,11.51
2023-03-19T10:58:31.532Z,11.62
2023-03-19T10:59:31.002Z,11.59
2023-03-19T11:00:32.441Z,12.10
2023-03-19T11:01:33.624Z,12.02
2023-03-19T11:02:32.455Z,12.30
2023-03-19T11:03:33.511Z,12.30
2023-03-19T11:04:32.350Z,11.36
2023-03-19T11:05:32.055Z,11.40
2023-03-19T11:06:36.671Z,11.80
2023-03-19T11:07:33.533Z,11.78
2023-03-19T11:08:35.773Z,11.57
2023-03-19T11:09:40.260Z,11.94
2023-03-19T11:10:37.753Z,11.81
2023-03-19T11:11:43.679Z,11.57
2023-03-19T11:12:40.720Z,11.68
2023-03-19T11:13:38.395Z,12.43
2023-03-19T11:14:36.463Z,12.44
2023-03-19T11:15:37.032Z,12.89
2023-03-19T11:16:51.434Z,13.21
2023-03-19T11:17:57.378Z,13.05
2023-03-19T11:18:54.078Z,12.84
2023-03-19T11:19:58.860Z,12.97
2023-03-19T11:21:08.524Z,13.02
2023-03-19T11:22:09.300Z,12.55
2023-03-19T11:23:20.406Z,12.73
2023-03-19T11:24:17.410Z,12.85
2023-03-19T11:25:20.605Z,13.03
2023-03-19T11:26:20.622Z,12.42
2023-03-19T11:27:17.328Z,12.59
2023-03-19T11:28:18.125Z,12.42
2023-03-19T11:29:16.367Z,12.29
2023-03-19T11:30:18.192Z,11.96
2023-03-19T11:32:20.322Z,12.43
2023-03-19T11:33:38.633Z,13.00
2023-03-19T11:34:44.341Z,12.97
2023-03-19T11:36:05.496Z,12.74
2023-03-19T11:37:17.674Z,12.83
2023-03-19T11:38:51.149Z,12.76
2023-03-19T11:39:50.866Z,12.54
2023-03-19T11:41:04.078Z,12.41
2023-03-19T11:42:04.007Z,12.23
2023-03-19T11:43:00.747Z,12.83
2023-03-19T11:44:17.666Z,12.79
2023-03-19T11:45:40.800Z,13.14
2023-03-19T11:46:54.411Z,13.03
2023-03-19T11:47:57.275Z,12.73
2023-03-19T11:49:19.869Z,12.55
2023-03-19T11:50:35.363Z,12.83
2023-03-19T11:51:51.407Z,12.93
2023-03-19T11:52:52.996Z,12.75
2023-03-19T11:54:04.946Z,13.00
2023-03-19T11:55:22.385Z,12.72
2023-03-19T11:56:47.278Z,12.69
2023-03-19T11:57:54.748Z,13.08
2023-03-19T11:58:57.912Z,12.71
2023-03-19T12:00:10.877Z,13.08
2023-03-19T12:01:23.467Z,12.86
2023-03-19T12:02:23.625Z,13.21
2023-03-19T12:03:39.025Z,13.08
2023-03-19T12:04:58.296Z,12.73
2023-03-19T12:06:01.322Z,12.96
2023-03-19T12:07:06.920Z,13.11
2023-03-19T12:08:07.406Z,13.49
2023-03-19T12:09:17.324Z,13.51
2023-03-19T12:10:27.835Z,13.39
2023-03-19T12:11:33.971Z,13.51
2023-03-19T12:12:42.510Z,13.14
2023-03-19T12:14:00.379Z,12.63
2023-03-19T12:15:20.484Z,13.08
2023-03-19T12:16:29.463Z,13.33
2023-03-19T12:18:10.948Z,13.37
2023-03-19T12:19:28.294Z,13.34
2023-03-19T12:20:54.570Z,13.48
2023-03-19T12:22:36.508Z,13.26
2023-03-19T12:23:44.992Z,13.61
2023-03-19T12:24:57.712Z,12.85
2023-03-19T12:26:06.988Z,12.76
2023-03-19T12:27:16.063Z,13.40
2023-03-19T12:28:23.842Z,13.74
2023-03-19T12:29:23.985Z,14.17
2023-03-19T12:30:41.433Z,14.33
2023-03-19T12:32:14.162Z,13.71
2023-03-19T12:33:34.721Z,13.76
2023-03-19T12:34:38.297Z,13.54
2023-03-19T12:35:38.670Z,13.37
2023-03-19T12:36:48.863Z,13.59
2023-03-19T12:37:51.592Z,14.22
2023-03-19T12:38:53.892Z,14.17
2023-03-19T12:40:04.926Z,14.18
2023-03-19T12:41:07.920Z,14.31
2023-03-19T12:42:08.646Z,14.27
2023-03-19T12:43:56.620Z,14.41
2023-03-19T12:44:57.977Z,14.33
2023-03-19T12:46:15.145Z,14.44
2023-03-19T12:47:26.838Z,13.77
2023-03-19T12:48:33.817Z,13.50
2023-03-19T12:49:43.220Z,13.80
2023-03-19T12:50:44.044Z,14.18
2023-03-19T12:51:46.533Z,14.26
2023-03-19T12:52:45.053Z,14.48
2023-03-19T12:53:54.264Z,13.99
2023-03-19T12:55:26.320Z,14.28
2023-03-19T12:56:36.650Z,14.27
2023-03-19T12:57:44.299Z,14.48
2023-03-19T12:58:58.826Z,14.40
2023-03-19T13:00:05.045Z,14.11